Terminal Aerodrome Forecast
Issued by NWS

Home | Current Version | Previous Version | Graphics & Text | Print | Product List | Glossary On
Versions: 1 2 3 4 5 6 7 8 9 10 11 12 13 14 15 16 17 18 19 20 21 22 23 24 25 26 27 28 29 30 31 32 33 34 35 36 37 38 39 40 41 42 43 44 45 46 47 48 49 50
764
FTUS43 KLOT 300258 AAA
TAFGYY
TAF AMD
KGYY 300258Z 3003/3024 04006KT P6SM BKN012 OVC020
     FM300900 07011KT P6SM BKN025 OVC120
     FM301500 08013G18KT P6SM VCSH BKN025 OVC080
     FM301900 07015G21KT 5SM -RA BKN025 OVC080
     FM302200 06013G20KT 2SM -RA BR OVC010=

USA.gov is the U.S. government's official web portal to all federal, state and local government web resources and services.